createdAt,value
2022-12-18T00:00:30.495Z,69.55
2022-12-18T00:03:37.105Z,69.46
2022-12-18T00:06:39.636Z,69.34
2022-12-18T00:09:42.317Z,68.98
2022-12-18T00:12:44.572Z,68.78
2022-12-18T00:15:47.418Z,68.90
2022-12-18T00:18:52.733Z,69.16
2022-12-18T00:21:55.466Z,69.12
2022-12-18T00:24:57.951Z,69.37
2022-12-18T00:28:00.675Z,69.12
2022-12-18T00:31:05.520Z,68.89
2022-12-18T00:34:10.366Z,69.29
2022-12-18T00:37:19.886Z,69.35
2022-12-18T00:40:26.547Z,69.57
2022-12-18T00:43:29.854Z,69.33
2022-12-18T00:46:32.733Z,69.29
2022-12-18T00:49:35.111Z,68.96
2022-12-18T00:52:37.797Z,69.38
2022-12-18T00:55:40.894Z,69.16
2022-12-18T00:58:43.430Z,68.61
2022-12-18T01:01:47.042Z,68.28
2022-12-18T01:04:49.803Z,68.71
2022-12-18T01:07:54.522Z,68.19
2022-12-18T01:10:57.066Z,68.41
2022-12-18T01:14:00.869Z,68.62
2022-12-18T01:17:04.684Z,68.53
2022-12-18T01:20:09.870Z,68.56
2022-12-18T01:23:12.417Z,68.19
2022-12-18T01:26:16.305Z,68.78
2022-12-18T01:29:19.295Z,68.88
2022-12-18T01:32:23.067Z,68.39
2022-12-18T01:35:25.855Z,68.56
2022-12-18T01:38:30.423Z,68.63
2022-12-18T01:41:53.899Z,68.75
2022-12-18T01:45:14.598Z,68.43
2022-12-18T01:48:18.710Z,69.25
2022-12-18T01:51:21.661Z,69.16
2022-12-18T01:54:24.298Z,69.29
2022-12-18T01:57:27.916Z,69.36
2022-12-18T02:00:30.696Z,69.53
2022-12-18T02:03:33.249Z,69.50
2022-12-18T02:06:42.349Z,69.33
2022-12-18T02:10:14.264Z,69.38
2022-12-18T02:13:19.304Z,69.53
2022-12-18T02:16:45.827Z,69.61
2022-12-18T02:20:28.938Z,69.10
2022-12-18T02:23:42.272Z,69.44
2022-12-18T02:26:51.242Z,69.85
2022-12-18T02:29:59.043Z,70.06
2022-12-18T02:33:07.403Z,69.63
2022-12-18T02:36:11.944Z,69.69
2022-12-18T02:39:16.858Z,69.28
2022-12-18T02:42:20.714Z,69.67
2022-12-18T02:45:23.783Z,69.53
2022-12-18T02:48:32.552Z,69.54
2022-12-18T02:51:49.346Z,69.58
2022-12-18T02:55:01.514Z,69.69
2022-12-18T02:58:14.098Z,69.84
2022-12-18T03:01:38.087Z,69.84
2022-12-18T03:05:10.120Z,69.86
2022-12-18T03:08:21.070Z,70.04
2022-12-18T03:11:48.309Z,69.93
2022-12-18T03:15:05.559Z,70.31
2022-12-18T03:18:26.354Z,70.22
2022-12-18T03:21:50.742Z,70.29
2022-12-18T03:24:57.244Z,70.59
2022-12-18T03:28:04.166Z,70.41
2022-12-18T03:31:10.848Z,70.28
2022-12-18T03:34:27.468Z,70.09
2022-12-18T03:37:31.486Z,70.48
2022-12-18T03:40:52.163Z,70.37
2022-12-18T03:43:54.874Z,70.67
2022-12-18T03:47:14.348Z,70.77
2022-12-18T03:50:38.983Z,70.71
2022-12-18T03:53:51.003Z,70.94
2022-12-18T03:57:02.404Z,70.37
2022-12-18T04:00:12.000Z,70.79
2022-12-18T04:03:22.582Z,70.66
2022-12-18T04:06:30.466Z,71.04
2022-12-18T04:09:35.243Z,70.73
2022-12-18T04:12:38.825Z,71.05
2022-12-18T04:15:41.997Z,71.22
2022-12-18T04:18:45.136Z,71.52
2022-12-18T04:21:48.956Z,71.33
2022-12-18T04:24:51.683Z,70.97
2022-12-18T04:27:55.346Z,70.82
2022-12-18T04:30:58.530Z,70.74
2022-12-18T04:34:00.923Z,71.05
2022-12-18T04:37:03.994Z,71.06
2022-12-18T04:40:07.358Z,71.08
2022-12-18T04:43:12.529Z,70.96
2022-12-18T04:46:15.755Z,71.00
2022-12-18T04:49:18.556Z,70.66
2022-12-18T04:52:20.794Z,70.81
2022-12-18T04:55:23.334Z,71.13
2022-12-18T04:58:25.603Z,71.13
2022-12-18T05:01:34.297Z,70.55
2022-12-18T05:04:37.127Z,70.66
2022-12-18T05:07:40.143Z,70.88
2022-12-18T05:10:43.706Z,70.86
2022-12-18T05:13:46.802Z,71.04
2022-12-18T05:16:49.062Z,71.13
2022-12-18T05:19:51.663Z,71.09
2022-12-18T05:22:54.409Z,71.12
2022-12-18T05:25:59.794Z,71.12
2022-12-18T05:29:02.184Z,71.39
2022-12-18T05:32:05.008Z,71.42
2022-12-18T05:35:26.035Z,71.27
2022-12-18T05:38:30.040Z,71.08
2022-12-18T05:41:32.297Z,70.93
2022-12-18T05:44:35.045Z,70.92
2022-12-18T05:47:37.425Z,70.76
2022-12-18T05:50:42.077Z,70.81
2022-12-18T05:53:44.535Z,71.01
2022-12-18T05:56:48.883Z,70.56
2022-12-18T05:59:51.503Z,70.76
2022-12-18T06:02:54.151Z,70.83
2022-12-18T06:05:56.799Z,70.89
2022-12-18T06:08:59.125Z,70.99
2022-12-18T06:12:01.630Z,71.05
2022-12-18T06:15:04.540Z,71.05
2022-12-18T06:18:07.102Z,70.86
2022-12-18T06:21:09.385Z,70.96
2022-12-18T06:24:11.935Z,70.87
2022-12-18T06:27:14.541Z,70.85
2022-12-18T06:30:17.207Z,70.77
2022-12-18T06:33:19.639Z,70.74
2022-12-18T06:36:22.346Z,70.67
2022-12-18T06:39:25.130Z,70.58
2022-12-18T06:42:27.809Z,71.45
2022-12-18T06:45:30.099Z,71.38
2022-12-18T06:48:33.387Z,70.83
2022-12-18T06:51:35.683Z,70.79
2022-12-18T06:54:38.272Z,70.58
2022-12-18T06:57:40.533Z,70.80
2022-12-18T07:00:43.099Z,70.48
2022-12-18T07:03:46.547Z,70.37
2022-12-18T07:06:49.063Z,70.32
2022-12-18T07:09:51.950Z,70.20
2022-12-18T07:12:54.531Z,70.15
2022-12-18T07:15:56.849Z,70.16
2022-12-18T07:18:59.367Z,70.07
2022-12-18T07:22:02.338Z,70.05
2022-12-18T07:25:06.184Z,69.97
2022-12-18T07:28:12.793Z,69.82
2022-12-18T07:31:21.936Z,69.53
2022-12-18T07:34:24.498Z,69.57
2022-12-18T07:37:27.077Z,69.86
2022-12-18T07:40:29.312Z,70.23
2022-12-18T07:43:32.074Z,69.57
2022-12-18T07:46:34.328Z,69.61
2022-12-18T07:49:37.495Z,69.24
2022-12-18T07:52:39.773Z,68.79
2022-12-18T07:56:11.188Z,68.58
2022-12-18T07:59:06.162Z,68.50
2022-12-18T08:02:09.198Z,68.48
2022-12-18T08:05:11.961Z,68.56
2022-12-18T08:08:14.194Z,67.72
2022-12-18T08:11:16.788Z,67.26
2022-12-18T08:14:19.050Z,66.91
2022-12-18T08:17:22.516Z,66.80
2022-12-18T08:20:24.913Z,66.50
2022-12-18T08:23:28.802Z,65.29
2022-12-18T08:26:32.376Z,65.32
2022-12-18T08:29:34.980Z,64.18
2022-12-18T08:32:37.503Z,63.66
2022-12-18T08:35:45.588Z,63.34
2022-12-18T08:38:48.608Z,61.91
2022-12-18T08:42:11.537Z,61.00
2022-12-18T08:45:13.890Z,59.27
2022-12-18T08:48:21.862Z,58.50
2022-12-18T08:51:24.817Z,57.69
2022-12-18T08:54:27.550Z,56.90
2022-12-18T08:57:29.843Z,57.21
2022-12-18T09:00:32.365Z,57.26
2022-12-18T09:03:34.705Z,56.33
2022-12-18T09:06:37.413Z,55.54
2022-12-18T09:09:40.493Z,55.60
2022-12-18T09:12:43.259Z,54.57
2022-12-18T09:15:47.986Z,53.51
2022-12-18T09:18:51.994Z,52.18
2022-12-18T09:21:54.202Z,51.57
2022-12-18T09:24:56.719Z,50.92
2022-12-18T09:27:58.967Z,50.06
2022-12-18T09:31:08.637Z,50.12
2022-12-18T09:34:11.156Z,47.87
2022-12-18T09:37:13.713Z,46.82
2022-12-18T09:40:19.055Z,46.07
2022-12-18T09:43:29.070Z,45.37
2022-12-18T09:46:37.261Z,44.29
2022-12-18T09:49:49.659Z,43.83
2022-12-18T09:52:56.974Z,44.41
2022-12-18T09:56:02.680Z,43.60
2022-12-18T09:59:05.989Z,43.03
2022-12-18T10:02:22.358Z,43.80
2022-12-18T10:05:40.632Z,43.64
2022-12-18T10:09:12.658Z,43.33
2022-12-18T10:12:26.135Z,43.71
2022-12-18T10:15:37.449Z,41.87
2022-12-18T10:18:57.192Z,41.18
2022-12-18T10:22:37.462Z,41.15
2022-12-18T10:26:06.194Z,39.39
2022-12-18T10:29:13.635Z,37.75
2022-12-18T10:32:33.951Z,38.54
2022-12-18T10:35:37.310Z,38.67
2022-12-18T10:38:40.385Z,38.93
2022-12-18T10:41:42.900Z,38.42
2022-12-18T10:44:45.787Z,36.93
2022-12-18T10:47:50.079Z,38.03
2022-12-18T10:54:26.011Z,37.90
2022-12-18T10:57:37.000Z,36.19
2022-12-18T11:00:39.454Z,35.96
2022-12-18T11:03:47.905Z,34.92
2022-12-18T11:07:00.819Z,33.88
2022-12-18T11:10:03.771Z,35.38
2022-12-18T11:13:21.634Z,34.68
2022-12-18T11:16:25.357Z,34.72
2022-12-18T11:19:40.792Z,33.84
2022-12-18T11:22:43.782Z,34.43
2022-12-18T11:25:56.069Z,33.53
2022-12-18T11:29:18.338Z,32.77
2022-12-18T11:32:31.206Z,32.74
2022-12-18T11:35:39.411Z,33.33
2022-12-18T11:38:45.295Z,34.40
2022-12-18T11:42:17.442Z,35.71
2022-12-18T11:45:29.856Z,36.93
2022-12-18T11:48:41.595Z,38.20
2022-12-18T11:51:59.519Z,38.70
2022-12-18T11:55:12.320Z,39.48
2022-12-18T11:58:33.360Z,38.89
2022-12-18T12:01:48.245Z,38.40
2022-12-18T12:05:20.044Z,37.66
2022-12-18T12:08:27.946Z,37.65
2022-12-18T12:11:54.621Z,37.28
2022-12-18T12:15:20.532Z,36.90
2022-12-18T12:18:37.719Z,36.89
2022-12-18T12:22:11.881Z,36.69
2022-12-18T12:25:54.901Z,36.44
2022-12-18T12:29:22.935Z,36.02
2022-12-18T12:32:47.920Z,36.41
2022-12-18T12:36:26.056Z,36.14
2022-12-18T12:39:37.556Z,36.51
2022-12-18T12:43:05.213Z,36.47
2022-12-18T12:46:12.716Z,37.56
2022-12-18T12:49:23.874Z,39.57
2022-12-18T12:52:41.445Z,40.18
2022-12-18T12:55:45.880Z,41.43
2022-12-18T13:07:29.595Z,43.84
2022-12-18T13:10:39.444Z,44.06
2022-12-18T13:13:55.133Z,44.37
2022-12-18T13:17:18.114Z,45.64
2022-12-18T13:20:20.642Z,46.28
2022-12-18T13:23:25.840Z,46.34
2022-12-18T13:26:49.474Z,46.86
2022-12-18T13:29:52.845Z,47.16
2022-12-18T13:33:27.997Z,47.82
2022-12-18T13:36:33.993Z,49.21
2022-12-18T13:39:36.687Z,47.84
2022-12-18T13:42:59.101Z,48.55
2022-12-18T13:46:18.827Z,48.93
2022-12-18T13:49:21.270Z,49.20
2022-12-18T13:52:27.595Z,50.57
2022-12-18T13:55:30.413Z,50.33
2022-12-18T13:58:32.965Z,50.43
2022-12-18T14:01:35.899Z,51.29
2022-12-18T14:04:38.710Z,51.00
2022-12-18T14:07:42.978Z,51.98
2022-12-18T14:10:52.237Z,52.74
2022-12-18T14:13:54.549Z,53.76
2022-12-18T14:16:57.577Z,54.40
2022-12-18T14:20:01.217Z,55.13
2022-12-18T14:23:03.856Z,55.35
2022-12-18T14:26:28.969Z,55.72
2022-12-18T14:29:32.092Z,56.26
2022-12-18T14:32:34.463Z,56.45
2022-12-18T14:35:40.474Z,55.62
2022-12-18T14:38:42.832Z,56.88
2022-12-18T14:41:45.973Z,56.75
2022-12-18T14:45:12.916Z,56.38
2022-12-18T14:48:41.496Z,56.08
2022-12-18T14:51:50.031Z,56.29
2022-12-18T14:54:53.222Z,55.00
2022-12-18T14:57:57.402Z,54.87
2022-12-18T15:01:00.011Z,54.50
2022-12-18T15:04:04.669Z,55.66
2022-12-18T15:07:22.360Z,56.15
2022-12-18T15:10:27.048Z,56.63
2022-12-18T15:13:31.052Z,56.61
2022-12-18T15:16:34.288Z,57.41
2022-12-18T15:19:41.719Z,57.56
2022-12-18T15:22:44.012Z,58.17
2022-12-18T15:25:48.192Z,58.46
2022-12-18T15:28:52.959Z,58.95
2022-12-18T15:32:04.389Z,58.86
2022-12-18T15:35:20.714Z,58.75
2022-12-18T15:38:23.294Z,58.91
2022-12-18T15:41:26.266Z,58.78
2022-12-18T15:44:29.222Z,59.07
2022-12-18T15:47:31.651Z,58.60
2022-12-18T15:50:34.255Z,59.11
2022-12-18T15:53:36.493Z,58.27
2022-12-18T15:56:57.551Z,59.34
2022-12-18T16:00:01.204Z,58.93
2022-12-18T16:03:05.384Z,59.22
2022-12-18T16:06:10.269Z,59.68
2022-12-18T16:09:12.575Z,59.69
2022-12-18T16:12:21.933Z,59.37
2022-12-18T16:15:24.905Z,60.36
2022-12-18T16:18:27.829Z,60.53
2022-12-18T16:21:33.962Z,60.51
2022-12-18T16:24:37.311Z,60.91
2022-12-18T16:27:39.659Z,60.80
2022-12-18T16:30:42.991Z,61.05
2022-12-18T16:33:45.312Z,61.27
2022-12-18T16:36:47.969Z,61.28
2022-12-18T16:39:50.360Z,61.50
2022-12-18T16:42:52.896Z,61.87
2022-12-18T16:45:58.279Z,61.50
2022-12-18T16:49:01.173Z,61.48
2022-12-18T16:52:05.185Z,61.90
2022-12-18T16:55:08.134Z,62.12
2022-12-18T16:58:11.145Z,62.58
2022-12-18T17:01:13.727Z,62.38
2022-12-18T17:04:17.437Z,62.76
2022-12-18T17:07:19.911Z,62.69
2022-12-18T17:10:22.180Z,63.12
2022-12-18T17:13:27.597Z,63.64
2022-12-18T17:16:40.341Z,63.42
2022-12-18T17:19:44.856Z,63.57
2022-12-18T17:22:49.195Z,63.82
2022-12-18T17:25:56.960Z,64.01
2022-12-18T17:28:59.573Z,64.15
2022-12-18T17:32:02.326Z,64.63
2022-12-18T17:35:07.337Z,64.64
2022-12-18T17:38:10.920Z,64.64
2022-12-18T17:41:13.353Z,64.78
2022-12-18T17:44:17.768Z,64.82
2022-12-18T17:47:20.679Z,65.05
2022-12-18T17:50:23.310Z,65.18
2022-12-18T17:53:25.529Z,65.22
2022-12-18T17:56:28.167Z,65.09
2022-12-18T17:59:31.549Z,65.29
2022-12-18T18:02:34.531Z,65.25
2022-12-18T18:05:37.228Z,65.46
2022-12-18T18:08:39.511Z,65.48
2022-12-18T18:12:00.984Z,65.73
2022-12-18T18:15:06.018Z,65.81
2022-12-18T18:18:08.892Z,66.17
2022-12-18T18:21:13.553Z,66.53
2022-12-18T18:24:23.270Z,66.45
2022-12-18T18:27:25.660Z,66.20
2022-12-18T18:30:29.028Z,66.31
2022-12-18T18:33:31.845Z,66.34
2022-12-18T18:36:34.408Z,66.43
2022-12-18T18:39:37.196Z,66.36
2022-12-18T18:42:39.796Z,66.40
2022-12-18T18:45:42.125Z,66.66
2022-12-18T18:48:47.743Z,66.64
2022-12-18T18:51:50.968Z,66.93
2022-12-18T18:55:12.140Z,67.08
2022-12-18T18:58:15.415Z,67.11
2022-12-18T19:01:20.929Z,67.06
2022-12-18T19:04:23.401Z,66.95
2022-12-18T19:07:30.647Z,66.97
2022-12-18T19:10:33.415Z,66.94
2022-12-18T19:13:35.995Z,66.87
2022-12-18T19:16:38.802Z,67.05
2022-12-18T19:19:42.703Z,67.26
2022-12-18T19:22:54.760Z,67.38
2022-12-18T19:26:26.894Z,67.36
2022-12-18T19:29:27.646Z,67.33
2022-12-18T19:32:31.409Z,67.22
2022-12-18T19:35:34.410Z,67.07
2022-12-18T19:38:37.406Z,67.15
2022-12-18T19:41:42.228Z,67.08
2022-12-18T19:44:45.044Z,67.24
2022-12-18T19:47:48.307Z,67.26
2022-12-18T19:50:50.890Z,67.50
2022-12-18T19:53:58.445Z,67.56
2022-12-18T19:57:01.638Z,67.82
2022-12-18T20:00:04.562Z,67.73
2022-12-18T20:03:23.490Z,67.98
2022-12-18T20:06:51.665Z,68.05
2022-12-18T20:10:01.444Z,68.20
2022-12-18T20:13:08.070Z,68.36
2022-12-18T20:16:10.858Z,68.28
2022-12-18T20:19:14.327Z,68.40
2022-12-18T20:22:18.148Z,68.24
2022-12-18T20:25:20.859Z,68.33
2022-12-18T20:28:24.323Z,68.56
2022-12-18T20:31:27.052Z,68.87
2022-12-18T20:34:29.352Z,68.84
2022-12-18T20:37:32.236Z,68.70
2022-12-18T20:40:35.342Z,68.66
2022-12-18T20:43:39.060Z,68.70
2022-12-18T20:46:41.712Z,68.86
2022-12-18T20:49:45.546Z,69.12
2022-12-18T20:52:48.645Z,68.91
2022-12-18T20:55:51.177Z,68.90
2022-12-18T20:58:57.637Z,69.01
2022-12-18T21:02:00.405Z,69.13
2022-12-18T21:05:02.862Z,69.12
2022-12-18T21:08:05.642Z,69.27
2022-12-18T21:11:38.924Z,69.24
2022-12-18T21:14:42.143Z,69.49
2022-12-18T21:17:45.373Z,69.36
2022-12-18T21:20:48.025Z,69.39
2022-12-18T21:23:51.173Z,69.57
2022-12-18T21:26:53.999Z,69.62
2022-12-18T21:29:56.428Z,69.44
2022-12-18T21:32:58.941Z,69.40
2022-12-18T21:36:07.126Z,69.16
2022-12-18T21:39:10.302Z,69.17
2022-12-18T21:42:31.514Z,69.36
2022-12-18T21:45:34.258Z,69.42
2022-12-18T21:48:39.056Z,69.52
2022-12-18T21:51:41.683Z,69.37
2022-12-18T21:54:43.983Z,69.54
2022-12-18T21:57:46.508Z,69.72
2022-12-18T22:00:49.804Z,69.78
2022-12-18T22:03:52.450Z,70.09
2022-12-18T22:06:55.177Z,70.04
2022-12-18T22:09:57.874Z,70.32
2022-12-18T22:13:01.550Z,70.27
2022-12-18T22:16:04.087Z,70.32
2022-12-18T22:19:06.857Z,70.34
2022-12-18T22:22:09.394Z,70.62
2022-12-18T22:25:11.765Z,70.70
2022-12-18T22:28:33.263Z,70.81
2022-12-18T22:31:36.021Z,70.90
2022-12-18T22:34:39.496Z,70.82
2022-12-18T22:37:41.747Z,70.73
2022-12-18T22:40:44.349Z,70.71
2022-12-18T22:43:46.586Z,70.71
2022-12-18T22:47:02.875Z,70.79
2022-12-18T22:50:12.791Z,70.84
2022-12-18T22:53:15.353Z,70.98
2022-12-18T22:56:21.077Z,71.09
2022-12-18T22:59:24.693Z,71.23
2022-12-18T23:02:27.062Z,71.46
2022-12-18T23:05:30.953Z,71.51
2022-12-18T23:08:36.620Z,71.29
2022-12-18T23:11:39.300Z,71.51
2022-12-18T23:14:41.555Z,71.45
2022-12-18T23:17:44.119Z,71.49
2022-12-18T23:20:46.357Z,71.51
2022-12-18T23:23:50.610Z,71.40
2022-12-18T23:26:52.984Z,71.39
2022-12-18T23:29:55.573Z,71.57
2022-12-18T23:33:01.072Z,71.48
2022-12-18T23:36:04.643Z,71.61
2022-12-18T23:39:07.119Z,71.66
2022-12-18T23:42:09.674Z,71.79
2022-12-18T23:45:17.806Z,71.71
2022-12-18T23:48:21.232Z,71.78
2022-12-18T23:51:25.654Z,71.78
2022-12-18T23:54:33.050Z,71.85
2022-12-18T23:57:38.476Z,71.81
